sensor_id;sensor_type;location;lat;lon;timestamp;pressure;altitude;pressure_sealevel;temperature;humidity
48942;BME280;35340;52.378;4.648;2023-02-17T00:01:56;101873.94;;;17.51;51.63
48942;BME280;35340;52.378;4.648;2023-02-17T00:04:22;101888.66;;;17.51;51.99
48942;BME280;35340;52.378;4.648;2023-02-17T00:06:47;101888.66;;;17.51;51.69
48942;BME280;35340;52.378;4.648;2023-02-17T00:09:13;101888.66;;;17.51;51.69
48942;BME280;35340;52.378;4.648;2023-02-17T00:11:38;101898.19;;;17.50;51.68
48942;BME280;35340;52.378;4.648;2023-02-17T00:14:04;101893.00;;;17.50;51.82
48942;BME280;35340;52.378;4.648;2023-02-17T00:16:29;101900.78;;;17.50;51.75
48942;BME280;35340;52.378;4.648;2023-02-17T00:18:57;101893.88;;;17.49;51.88
48942;BME280;35340;52.378;4.648;2023-02-17T00:21:25;101890.41;;;17.48;51.70
48942;BME280;35340;52.378;4.648;2023-02-17T00:23:52;101886.06;;;17.49;52.00
48942;BME280;35340;52.378;4.648;2023-02-17T00:26:18;101883.47;;;17.49;51.87
48942;BME280;35340;52.378;4.648;2023-02-17T00:28:45;101873.88;;;17.48;51.72
48942;BME280;35340;52.378;4.648;2023-02-17T00:31:16;101877.38;;;17.48;51.84
48942;BME280;35340;52.378;4.648;2023-02-17T00:33:42;101865.25;;;17.49;51.87
48942;BME280;35340;52.378;4.648;2023-02-17T00:36:11;101854.81;;;17.47;51.80
48942;BME280;35340;52.378;4.648;2023-02-17T00:38:37;101853.06;;;17.48;51.82
48942;BME280;35340;52.378;4.648;2023-02-17T00:41:02;101854.81;;;17.47;51.61
48942;BME280;35340;52.378;4.648;2023-02-17T00:43:28;101851.34;;;17.47;51.64
48942;BME280;35340;52.378;4.648;2023-02-17T00:45:54;101844.41;;;17.47;51.92
48942;BME280;35340;52.378;4.648;2023-02-17T00:48:19;101855.66;;;17.48;51.74
48942;BME280;35340;52.378;4.648;2023-02-17T00:50:45;101860.00;;;17.47;51.76
48942;BME280;35340;52.378;4.648;2023-02-17T00:53:10;101859.16;;;17.47;51.50
48942;BME280;35340;52.378;4.648;2023-02-17T00:55:36;101877.38;;;17.47;51.74
48942;BME280;35340;52.378;4.648;2023-02-17T00:58:01;101859.16;;;17.47;51.65
48942;BME280;35340;52.378;4.648;2023-02-17T01:00:27;101864.34;;;17.47;51.46
48942;BME280;35340;52.378;4.648;2023-02-17T01:02:52;101854.78;;;17.46;51.52
48942;BME280;35340;52.378;4.648;2023-02-17T01:05:18;101855.66;;;17.45;51.76
48942;BME280;35340;52.378;4.648;2023-02-17T01:07:43;101852.19;;;17.46;51.55
48942;BME280;35340;52.378;4.648;2023-02-17T01:10:08;101838.31;;;17.45;51.78
48942;BME280;35340;52.378;4.648;2023-02-17T01:12:34;101825.28;;;17.44;51.61
48942;BME280;35340;52.378;4.648;2023-02-17T01:15:00;101827.03;;;17.43;51.64
48942;BME280;35340;52.378;4.648;2023-02-17T01:17:25;101838.31;;;17.45;51.65
48942;BME280;35340;52.378;4.648;2023-02-17T01:19:51;101838.28;;;17.44;51.60
48942;BME280;35340;52.378;4.648;2023-02-17T01:22:16;101854.81;;;17.44;51.49
48942;BME280;35340;52.378;4.648;2023-02-17T01:24:42;101860.88;;;17.45;51.60
48942;BME280;35340;52.378;4.648;2023-02-17T01:27:07;101852.19;;;17.44;51.60
48942;BME280;35340;52.378;4.648;2023-02-17T01:29:33;101863.47;;;17.45;51.47
48942;BME280;35340;52.378;4.648;2023-02-17T01:31:58;101855.66;;;17.43;51.58
48942;BME280;35340;52.378;4.648;2023-02-17T01:34:23;101855.66;;;17.43;51.43
48942;BME280;35340;52.378;4.648;2023-02-17T01:36:49;101870.41;;;17.44;51.73
48942;BME280;35340;52.378;4.648;2023-02-17T01:39:15;101864.31;;;17.44;51.28
48942;BME280;35340;52.378;4.648;2023-02-17T01:41:41;101859.13;;;17.42;51.65
48942;BME280;35340;52.378;4.648;2023-02-17T01:44:17;101849.56;;;17.43;51.51
48942;BME280;35340;52.378;4.648;2023-02-17T01:46:48;101836.56;;;17.43;51.62
48942;BME280;35340;52.378;4.648;2023-02-17T01:51:59;101804.47;;;17.42;51.51
48942;BME280;35340;52.378;4.648;2023-02-17T01:54:32;101807.06;;;17.41;51.40
48942;BME280;35340;52.378;4.648;2023-02-17T01:57:00;101810.53;;;17.41;51.60
48942;BME280;35340;52.378;4.648;2023-02-17T01:59:27;101815.72;;;17.41;51.52
48942;BME280;35340;52.378;4.648;2023-02-17T02:01:57;101814.00;;;17.42;51.45
48942;BME280;35340;52.378;4.648;2023-02-17T02:04:25;101817.47;;;17.41;51.58
48942;BME280;35340;52.378;4.648;2023-02-17T02:06:51;101824.41;;;17.42;51.68
48942;BME280;35340;52.378;4.648;2023-02-17T02:09:20;101817.47;;;17.41;51.51
48942;BME280;35340;52.378;4.648;2023-02-17T02:11:50;101807.03;;;17.39;51.53
48942;BME280;35340;52.378;4.648;2023-02-17T02:14:17;101794.94;;;17.40;51.62
48942;BME280;35340;52.378;4.648;2023-02-17T02:17:03;101801.00;;;17.40;51.57
48942;BME280;35340;52.378;4.648;2023-02-17T02:20:32;101802.72;;;17.40;51.69
48942;BME280;35340;52.378;4.648;2023-02-17T02:29:12;101771.50;;;17.40;51.43
48942;BME280;35340;52.378;4.648;2023-02-17T02:34:31;101776.72;;;17.40;51.60
48942;BME280;35340;52.378;4.648;2023-02-17T02:37:08;101768.88;;;17.38;51.93
48942;BME280;35340;52.378;4.648;2023-02-17T02:39:38;101772.34;;;17.39;51.73
48942;BME280;35340;52.378;4.648;2023-02-17T02:42:10;101772.34;;;17.37;51.41
48942;BME280;35340;52.378;4.648;2023-02-17T02:44:37;101772.34;;;17.39;51.56
48942;BME280;35340;52.378;4.648;2023-02-17T02:47:06;101766.28;;;17.38;51.41
48942;BME280;35340;52.378;4.648;2023-02-17T02:49:34;101761.94;;;17.37;51.50
48942;BME280;35340;52.378;4.648;2023-02-17T02:52:04;101762.81;;;17.38;51.27
48942;BME280;35340;52.378;4.648;2023-02-17T02:54:57;101751.53;;;17.37;51.50
48942;BME280;35340;52.378;4.648;2023-02-17T03:00:06;101741.09;;;17.37;51.45
48942;BME280;35340;52.378;4.648;2023-02-17T03:02:45;101744.59;;;17.36;51.41
48942;BME280;35340;52.378;4.648;2023-02-17T03:08:07;101734.19;;;17.36;51.39
48942;BME280;35340;52.378;4.648;2023-02-17T03:10:33;101741.13;;;17.36;51.26
48942;BME280;35340;52.378;4.648;2023-02-17T03:13:01;101748.03;;;17.35;51.16
48942;BME280;35340;52.378;4.648;2023-02-17T03:15:30;101735.91;;;17.36;51.33
48942;BME280;35340;52.378;4.648;2023-02-17T03:17:57;101735.91;;;17.36;51.42
48942;BME280;35340;52.378;4.648;2023-02-17T03:20:23;101735.03;;;17.35;51.57
48942;BME280;35340;52.378;4.648;2023-02-17T03:22:49;101734.16;;;17.35;51.30
48942;BME280;35340;52.378;4.648;2023-02-17T03:25:15;101729.81;;;17.35;51.48
48942;BME280;35340;52.378;4.648;2023-02-17T03:27:41;101724.63;;;17.34;51.73
48942;BME280;35340;52.378;4.648;2023-02-17T03:30:08;101728.09;;;17.34;51.45
48942;BME280;35340;52.378;4.648;2023-02-17T03:32:34;101724.63;;;17.34;51.34
48942;BME280;35340;52.378;4.648;2023-02-17T03:34:59;101729.84;;;17.34;51.37
48942;BME280;35340;52.378;4.648;2023-02-17T03:37:24;101730.69;;;17.34;51.41
48942;BME280;35340;52.378;4.648;2023-02-17T03:39:50;101743.72;;;17.34;51.36
48942;BME280;35340;52.378;4.648;2023-02-17T03:42:15;101740.25;;;17.34;51.37
48942;BME280;35340;52.378;4.648;2023-02-17T03:44:41;101738.50;;;17.34;51.41
48942;BME280;35340;52.378;4.648;2023-02-17T03:47:06;101743.69;;;17.33;51.33
48942;BME280;35340;52.378;4.648;2023-02-17T03:49:32;101735.88;;;17.33;51.29
48942;BME280;35340;52.378;4.648;2023-02-17T03:51:57;101727.25;;;17.34;51.29
48942;BME280;35340;52.378;4.648;2023-02-17T03:54:24;101722.88;;;17.33;51.33
48942;BME280;35340;52.378;4.648;2023-02-17T03:56:49;101736.75;;;17.33;51.30
48942;BME280;35340;52.378;4.648;2023-02-17T03:59:15;101733.28;;;17.33;51.38
48942;BME280;35340;52.378;4.648;2023-02-17T04:01:40;101733.28;;;17.33;51.33
48942;BME280;35340;52.378;4.648;2023-02-17T04:04:06;101734.16;;;17.33;51.42
48942;BME280;35340;52.378;4.648;2023-02-17T04:06:31;101727.22;;;17.32;51.46
48942;BME280;35340;52.378;4.648;2023-02-17T04:08:56;101721.16;;;17.32;51.23
48942;BME280;35340;52.378;4.648;2023-02-17T04:11:22;101702.94;;;17.32;51.36
48942;BME280;35340;52.378;4.648;2023-02-17T04:13:47;101702.09;;;17.31;51.20
48942;BME280;35340;52.378;4.648;2023-02-17T04:16:12;101709.88;;;17.31;51.50
48942;BME280;35340;52.378;4.648;2023-02-17T04:18:38;101717.69;;;17.31;51.36
48942;BME280;35340;52.378;4.648;2023-02-17T04:21:04;101713.31;;;17.30;51.34
48942;BME280;35340;52.378;4.648;2023-02-17T04:23:30;101698.59;;;17.31;51.23
48942;BME280;35340;52.378;4.648;2023-02-17T04:25:55;101702.09;;;17.31;51.37
48942;BME280;35340;52.378;4.648;2023-02-17T04:28:21;101700.31;;;17.30;51.34
48942;BME280;35340;52.378;4.648;2023-02-17T04:30:48;101688.19;;;17.29;51.41
48942;BME280;35340;52.378;4.648;2023-02-17T04:33:14;101695.97;;;17.31;51.40
48942;BME280;35340;52.378;4.648;2023-02-17T04:35:41;101689.06;;;17.30;51.52
48942;BME280;35340;52.378;4.648;2023-02-17T04:38:07;101697.69;;;17.28;51.46
48942;BME280;35340;52.378;4.648;2023-02-17T04:40:32;101701.19;;;17.29;51.88
48942;BME280;35340;52.378;4.648;2023-02-17T04:42:58;101715.06;;;17.30;51.57
48942;BME280;35340;52.378;4.648;2023-02-17T04:45:24;101719.41;;;17.29;51.55
48942;BME280;35340;52.378;4.648;2023-02-17T04:47:50;101718.50;;;17.28;51.29
48942;BME280;35340;52.378;4.648;2023-02-17T04:50:15;101723.72;;;17.30;51.54
48942;BME280;35340;52.378;4.648;2023-02-17T04:52:41;101733.25;;;17.28;51.48
48942;BME280;35340;52.378;4.648;2023-02-17T04:55:07;101720.28;;;17.30;51.54
48942;BME280;35340;52.378;4.648;2023-02-17T04:57:33;101721.13;;;17.30;51.22
48942;BME280;35340;52.378;4.648;2023-02-17T04:59:58;101708.13;;;17.30;51.83
48942;BME280;35340;52.378;4.648;2023-02-17T05:02:24;101702.94;;;17.30;51.43
48942;BME280;35340;52.378;4.648;2023-02-17T05:04:51;101698.59;;;17.31;51.62
48942;BME280;35340;52.378;4.648;2023-02-17T05:07:17;101688.19;;;17.31;51.56
48942;BME280;35340;52.378;4.648;2023-02-17T05:09:43;101696.00;;;17.32;51.61
48942;BME280;35340;52.378;4.648;2023-02-17T05:12:08;101683.88;;;17.31;51.63
48942;BME280;35340;52.378;4.648;2023-02-17T05:14:33;101677.78;;;17.31;51.48
48942;BME280;35340;52.378;4.648;2023-02-17T05:16:59;101676.94;;;17.32;51.69
48942;BME280;35340;52.378;4.648;2023-02-17T05:19:24;101681.25;;;17.33;51.84
48942;BME280;35340;52.378;4.648;2023-02-17T05:21:49;101676.94;;;17.32;51.61
48942;BME280;35340;52.378;4.648;2023-02-17T05:24:16;101672.59;;;17.32;51.86
48942;BME280;35340;52.378;4.648;2023-02-17T05:26:41;101662.19;;;17.32;51.88
48942;BME280;35340;52.378;4.648;2023-02-17T05:29:07;101667.38;;;17.32;51.70
48942;BME280;35340;52.378;4.648;2023-02-17T05:31:32;101664.78;;;17.32;51.73
48942;BME280;35340;52.378;4.648;2023-02-17T05:33:57;101673.44;;;17.33;51.71
48942;BME280;35340;52.378;4.648;2023-02-17T05:36:23;101672.59;;;17.34;51.91
48942;BME280;35340;52.378;4.648;2023-02-17T05:38:48;101663.91;;;17.33;52.06
48942;BME280;35340;52.378;4.648;2023-02-17T05:41:15;101657.84;;;17.37;51.92
48942;BME280;35340;52.378;4.648;2023-02-17T05:43:41;101663.06;;;17.37;51.79
48942;BME280;35340;52.378;4.648;2023-02-17T05:46:06;101664.78;;;17.37;51.70
48942;BME280;35340;52.378;4.648;2023-02-17T05:48:32;101659.56;;;17.35;51.87
48942;BME280;35340;52.378;4.648;2023-02-17T05:50:58;101661.31;;;17.35;51.84
48942;BME280;35340;52.378;4.648;2023-02-17T05:53:24;101676.06;;;17.34;51.80
48942;BME280;35340;52.378;4.648;2023-02-17T05:55:49;101659.59;;;17.34;51.95
48942;BME280;35340;52.378;4.648;2023-02-17T05:58:14;101657.84;;;17.34;52.08
48942;BME280;35340;52.378;4.648;2023-02-17T06:00:40;101656.09;;;17.33;51.82
48942;BME280;35340;52.378;4.648;2023-02-17T06:03:05;101654.41;;;17.34;52.25
48942;BME280;35340;52.378;4.648;2023-02-17T06:05:31;101654.41;;;17.34;51.96
48942;BME280;35340;52.378;4.648;2023-02-17T06:07:56;101645.72;;;17.35;52.17
48942;BME280;35340;52.378;4.648;2023-02-17T06:10:22;101642.22;;;17.33;52.04
48942;BME280;35340;52.378;4.648;2023-02-17T06:12:47;101644.84;;;17.34;52.06
48942;BME280;35340;52.378;4.648;2023-02-17T06:15:13;101643.97;;;17.34;51.87
48942;BME280;35340;52.378;4.648;2023-02-17T06:17:38;101642.25;;;17.34;52.17
48942;BME280;35340;52.378;4.648;2023-02-17T06:20:04;101642.25;;;17.34;52.37
48942;BME280;35340;52.378;4.648;2023-02-17T06:22:29;101640.50;;;17.35;52.08
48942;BME280;35340;52.378;4.648;2023-02-17T06:24:55;101633.56;;;17.34;52.32
48942;BME280;35340;52.378;4.648;2023-02-17T06:27:20;101631.84;;;17.34;52.31
48942;BME280;35340;52.378;4.648;2023-02-17T06:29:46;101631.84;;;17.36;52.37
48942;BME280;35340;52.378;4.648;2023-02-17T06:32:11;101628.34;;;17.35;52.61
48942;BME280;35340;52.378;4.648;2023-02-17T06:34:37;101617.94;;;17.35;52.53
48942;BME280;35340;52.378;4.648;2023-02-17T06:37:02;101617.94;;;17.35;52.43
48942;BME280;35340;52.378;4.648;2023-02-17T06:39:28;101624.06;;;17.36;52.46
48942;BME280;35340;52.378;4.648;2023-02-17T06:41:53;101640.53;;;17.36;52.42
48942;BME280;35340;52.378;4.648;2023-02-17T06:44:19;101640.53;;;17.36;52.64
48942;BME280;35340;52.378;4.648;2023-02-17T06:46:44;101652.66;;;17.37;52.56
48942;BME280;35340;52.378;4.648;2023-02-17T06:49:11;101638.78;;;17.37;52.51
48942;BME280;35340;52.378;4.648;2023-02-17T06:51:36;101652.69;;;17.43;52.64
48942;BME280;35340;52.378;4.648;2023-02-17T06:54:02;101641.41;;;17.43;52.67
48942;BME280;35340;52.378;4.648;2023-02-17T06:56:28;101640.56;;;17.42;52.64
48942;BME280;35340;52.378;4.648;2023-02-17T06:58:53;101633.59;;;17.41;52.80
48942;BME280;35340;52.378;4.648;2023-02-17T07:01:22;101632.72;;;17.41;52.86
48942;BME280;35340;52.378;4.648;2023-02-17T07:03:50;101621.44;;;17.42;52.72
48942;BME280;35340;52.378;4.648;2023-02-17T07:06:16;101623.19;;;17.40;52.91
48942;BME280;35340;52.378;4.648;2023-02-17T07:08:41;101620.59;;;17.40;52.86
48942;BME280;35340;52.378;4.648;2023-02-17T07:11:09;101615.41;;;17.40;53.17
48942;BME280;35340;52.378;4.648;2023-02-17T07:13:35;101624.94;;;17.41;52.80
48942;BME280;35340;52.378;4.648;2023-02-17T07:16:00;101621.47;;;17.40;52.74
48942;BME280;35340;52.378;4.648;2023-02-17T07:18:26;101630.13;;;17.41;52.65
48942;BME280;35340;52.378;4.648;2023-02-17T07:20:52;101618.84;;;17.42;52.92
48942;BME280;35340;52.378;4.648;2023-02-17T07:23:17;101615.38;;;17.41;52.85
48942;BME280;35340;52.378;4.648;2023-02-17T07:25:43;101618.00;;;17.43;52.73
48942;BME280;35340;52.378;4.648;2023-02-17T07:28:08;101611.94;;;17.42;52.71
48942;BME280;35340;52.378;4.648;2023-02-17T07:30:38;101614.53;;;17.42;52.73
48942;BME280;35340;52.378;4.648;2023-02-17T07:33:04;101581.56;;;17.43;52.88
48942;BME280;35340;52.378;4.648;2023-02-17T07:35:30;101604.13;;;17.42;52.87
48942;BME280;35340;52.378;4.648;2023-02-17T07:37:59;101625.81;;;17.43;52.84
48942;BME280;35340;52.378;4.648;2023-02-17T07:40:25;101628.41;;;17.44;52.87
48942;BME280;35340;52.378;4.648;2023-02-17T07:42:51;101618.00;;;17.43;52.88
48942;BME280;35340;52.378;4.648;2023-02-17T07:45:17;101621.47;;;17.45;52.96
48942;BME280;35340;52.378;4.648;2023-02-17T07:47:43;101634.47;;;17.45;52.83
48942;BME280;35340;52.378;4.648;2023-02-17T07:50:09;101652.69;;;17.45;52.75
48942;BME280;35340;52.378;4.648;2023-02-17T07:52:34;101643.13;;;17.44;52.61
48942;BME280;35340;52.378;4.648;2023-02-17T07:55:00;101651.81;;;17.46;52.67
48942;BME280;35340;52.378;4.648;2023-02-17T07:57:25;101676.13;;;17.46;52.77
48942;BME280;35340;52.378;4.648;2023-02-17T07:59:51;101676.13;;;17.46;52.77
48942;BME280;35340;52.378;4.648;2023-02-17T08:02:16;101662.22;;;17.46;52.67
48942;BME280;35340;52.378;4.648;2023-02-17T08:04:42;101663.97;;;17.45;52.70
48942;BME280;35340;52.378;4.648;2023-02-17T08:07:18;101667.44;;;17.46;53.08
48942;BME280;35340;52.378;4.648;2023-02-17T08:09:54;101657.91;;;17.46;52.62
48942;BME280;35340;52.378;4.648;2023-02-17T08:12:38;101669.19;;;17.47;52.66
48942;BME280;35340;52.378;4.648;2023-02-17T08:15:21;101650.97;;;17.47;52.79
48942;BME280;35340;52.378;4.648;2023-02-17T08:17:47;101679.63;;;17.48;52.84
48942;BME280;35340;52.378;4.648;2023-02-17T08:20:12;101686.53;;;17.48;52.74
48942;BME280;35340;52.378;4.648;2023-02-17T08:22:39;101684.81;;;17.48;52.75
48942;BME280;35340;52.378;4.648;2023-02-17T08:25:05;101688.28;;;17.49;53.04
48942;BME280;35340;52.378;4.648;2023-02-17T08:27:30;101685.69;;;17.49;52.86
48942;BME280;35340;52.378;4.648;2023-02-17T08:29:56;101692.59;;;17.50;52.82
48942;BME280;35340;52.378;4.648;2023-02-17T08:32:21;101674.41;;;17.50;52.88
48942;BME280;35340;52.378;4.648;2023-02-17T08:34:47;101681.34;;;17.51;52.85
48942;BME280;35340;52.378;4.648;2023-02-17T08:37:12;101676.13;;;17.53;53.01
48942;BME280;35340;52.378;4.648;2023-02-17T08:39:38;101651.84;;;17.52;52.80
48942;BME280;35340;52.378;4.648;2023-02-17T08:42:04;101655.31;;;17.54;52.73
48942;BME280;35340;52.378;4.648;2023-02-17T08:44:30;101660.56;;;17.56;53.03
48942;BME280;35340;52.378;4.648;2023-02-17T08:46:57;101672.69;;;17.58;52.43
48942;BME280;35340;52.378;4.648;2023-02-17T08:49:24;101661.41;;;17.59;52.65
48942;BME280;35340;52.378;4.648;2023-02-17T08:51:51;101669.22;;;17.61;52.63
48942;BME280;35340;52.378;4.648;2023-02-17T08:54:17;101677.91;;;17.61;52.61
48942;BME280;35340;52.378;4.648;2023-02-17T08:56:43;101677.91;;;17.63;52.63
48942;BME280;35340;52.378;4.648;2023-02-17T08:59:10;101677.06;;;17.62;52.64
48942;BME280;35340;52.378;4.648;2023-02-17T09:01:36;101670.09;;;17.63;52.66
48942;BME280;35340;52.378;4.648;2023-02-17T09:04:03;101670.13;;;17.64;52.68
48942;BME280;35340;52.378;4.648;2023-02-17T09:06:38;101652.75;;;17.63;52.69
48942;BME280;35340;52.378;4.648;2023-02-17T09:09:05;101671.00;;;17.66;52.48
48942;BME280;35340;52.378;4.648;2023-02-17T09:11:31;101657.13;;;17.69;52.62
48942;BME280;35340;52.378;4.648;2023-02-17T09:13:56;101659.72;;;17.69;52.48
48942;BME280;35340;52.378;4.648;2023-02-17T09:16:22;101660.59;;;17.71;52.30
48942;BME280;35340;52.378;4.648;2023-02-17T09:18:50;101664.91;;;17.72;52.58
48942;BME280;35340;52.378;4.648;2023-02-17T09:21:15;101652.78;;;17.71;52.46
48942;BME280;35340;52.378;4.648;2023-02-17T09:23:42;101653.63;;;17.70;52.48
48942;BME280;35340;52.378;4.648;2023-02-17T09:26:09;101657.13;;;17.71;52.72
48942;BME280;35340;52.378;4.648;2023-02-17T09:28:36;101635.44;;;17.68;52.59
48942;BME280;35340;52.378;4.648;2023-02-17T09:31:14;101645.81;;;17.70;52.60
48942;BME280;35340;52.378;4.648;2023-02-17T09:33:41;101636.28;;;17.69;52.54
48942;BME280;35340;52.378;4.648;2023-02-17T09:36:09;101654.53;;;17.69;52.41
48942;BME280;35340;52.378;4.648;2023-02-17T09:38:37;101668.41;;;17.69;52.49
48942;BME280;35340;52.378;4.648;2023-02-17T09:44:20;101681.41;;;17.69;52.48
48942;BME280;35340;52.378;4.648;2023-02-17T09:49:27;101671.88;;;17.68;52.52
48942;BME280;35340;52.378;4.648;2023-02-17T09:57:27;101696.16;;;17.67;52.47
48942;BME280;35340;52.378;4.648;2023-02-17T09:59:58;101677.06;;;17.70;52.39
48942;BME280;35340;52.378;4.648;2023-02-17T10:05:04;101703.09;;;17.72;52.28
48942;BME280;35340;52.378;4.648;2023-02-17T10:07:40;101716.09;;;17.70;52.30
48942;BME280;35340;52.378;4.648;2023-02-17T10:10:23;101729.13;;;17.70;52.37
48942;BME280;35340;52.378;4.648;2023-02-17T10:12:53;101720.47;;;17.69;52.17
48942;BME280;35340;52.378;4.648;2023-02-17T10:15:23;101723.06;;;17.69;52.49
48942;BME280;35340;52.378;4.648;2023-02-17T10:18:09;101723.06;;;17.71;52.53
48942;BME280;35340;52.378;4.648;2023-02-17T10:20:41;101717.84;;;17.69;52.45
48942;BME280;35340;52.378;4.648;2023-02-17T10:23:18;101723.94;;;17.72;52.30
48942;BME280;35340;52.378;4.648;2023-02-17T10:26:17;101722.22;;;17.71;52.19
48942;BME280;35340;52.378;4.648;2023-02-17T10:29:29;101718.72;;;17.70;52.22
48942;BME280;35340;52.378;4.648;2023-02-17T10:32:13;101741.28;;;17.71;52.25
48942;BME280;35340;52.378;4.648;2023-02-17T10:39:57;101744.75;;;17.72;52.40
48942;BME280;35340;52.378;4.648;2023-02-17T10:42:37;101743.03;;;17.72;52.36
48942;BME280;35340;52.378;4.648;2023-02-17T10:45:36;101736.94;;;17.72;52.18
48942;BME280;35340;52.378;4.648;2023-02-17T10:48:11;101742.16;;;17.72;52.15
48942;BME280;35340;52.378;4.648;2023-02-17T10:50:41;101743.91;;;17.73;52.36
48942;BME280;35340;52.378;4.648;2023-02-17T10:53:22;101756.06;;;17.74;52.16
48942;BME280;35340;52.378;4.648;2023-02-17T10:58:22;101776.03;;;17.76;52.04
48942;BME280;35340;52.378;4.648;2023-02-17T11:00:52;101781.25;;;17.75;52.05
48942;BME280;35340;52.378;4.648;2023-02-17T11:03:27;101784.69;;;17.77;52.06
48942;BME280;35340;52.378;4.648;2023-02-17T11:06:01;101817.66;;;17.76;51.96
48942;BME280;35340;52.378;4.648;2023-02-17T11:08:36;101803.78;;;17.74;52.05
48942;BME280;35340;52.378;4.648;2023-02-17T11:11:14;101830.69;;;17.73;52.23
48942;BME280;35340;52.378;4.648;2023-02-17T11:16:31;101810.72;;;17.74;52.13
48942;BME280;35340;52.378;4.648;2023-02-17T11:18:56;101811.59;;;17.73;52.07
48942;BME280;35340;52.378;4.648;2023-02-17T11:21:22;101817.66;;;17.73;51.88
48942;BME280;35340;52.378;4.648;2023-02-17T11:24:02;101817.66;;;17.73;51.99
48942;BME280;35340;52.378;4.648;2023-02-17T11:26:31;101826.34;;;17.74;51.88
48942;BME280;35340;52.378;4.648;2023-02-17T11:29:15;101825.47;;;17.72;52.04
48942;BME280;35340;52.378;4.648;2023-02-17T11:31:52;101822.00;;;17.71;52.10
48942;BME280;35340;52.378;4.648;2023-02-17T11:34:25;101821.97;;;17.69;52.03
48942;BME280;35340;52.378;4.648;2023-02-17T11:39:36;101829.81;;;17.76;51.93
48942;BME280;35340;52.378;4.648;2023-02-17T11:42:13;101835.91;;;17.78;52.04
48942;BME280;35340;52.378;4.648;2023-02-17T11:44:39;101837.66;;;17.77;51.87
48942;BME280;35340;52.378;4.648;2023-02-17T11:47:29;101835.03;;;17.76;51.90
48942;BME280;35340;52.378;4.648;2023-02-17T11:55:34;101831.56;;;17.77;51.93
48942;BME280;35340;52.378;4.648;2023-02-17T12:06:23;101851.56;;;17.79;51.86
48942;BME280;35340;52.378;4.648;2023-02-17T12:09:20;101848.06;;;17.79;51.63
48942;BME280;35340;52.378;4.648;2023-02-17T12:11:56;101858.50;;;17.80;51.90
48942;BME280;35340;52.378;4.648;2023-02-17T12:23:02;101838.56;;;17.85;51.83
48942;BME280;35340;52.378;4.648;2023-02-17T12:25:46;101855.97;;;17.89;51.79
48942;BME280;35340;52.378;4.648;2023-02-17T12:36:37;101850.81;;;17.97;51.59
48942;BME280;35340;52.378;4.648;2023-02-17T12:39:14;101849.94;;;18.00;51.56
48942;BME280;35340;52.378;4.648;2023-02-17T12:42:06;101849.09;;;18.04;51.42
48942;BME280;35340;52.378;4.648;2023-02-17T12:44:54;101850.84;;;18.06;51.50
48942;BME280;35340;52.378;4.648;2023-02-17T12:47:32;101852.59;;;18.09;51.22
48942;BME280;35340;52.378;4.648;2023-02-17T12:50:15;101853.47;;;18.13;51.33
48942;BME280;35340;52.378;4.648;2023-02-17T12:52:45;101850.91;;;18.14;51.27
48942;BME280;35340;52.378;4.648;2023-02-17T12:57:48;101843.94;;;18.13;51.15
48942;BME280;35340;52.378;4.648;2023-02-17T13:00:27;101852.63;;;18.15;51.03
48942;BME280;35340;52.378;4.648;2023-02-17T13:02:58;101858.69;;;18.16;51.34
48942;BME280;35340;52.378;4.648;2023-02-17T13:05:45;101892.56;;;18.16;51.05
48942;BME280;35340;52.378;4.648;2023-02-17T13:08:17;101884.75;;;18.16;51.41
48942;BME280;35340;52.378;4.648;2023-02-17T13:10:45;101858.72;;;18.14;51.35
48942;BME280;35340;52.378;4.648;2023-02-17T13:13:27;101865.63;;;18.14;51.06
48942;BME280;35340;52.378;4.648;2023-02-17T13:16:12;101871.72;;;18.13;51.43
48942;BME280;35340;52.378;4.648;2023-02-17T13:18:44;101874.31;;;18.11;51.39
48942;BME280;35340;52.378;4.648;2023-02-17T13:24:12;101874.31;;;18.09;51.48
48942;BME280;35340;52.378;4.648;2023-02-17T13:26:40;101876.03;;;18.09;51.82
48942;BME280;35340;52.378;4.648;2023-02-17T13:31:52;101889.91;;;18.06;51.42
48942;BME280;35340;52.378;4.648;2023-02-17T13:34:41;101875.16;;;18.05;51.64
48942;BME280;35340;52.378;4.648;2023-02-17T13:37:23;101876.03;;;18.06;51.56
48942;BME280;35340;52.378;4.648;2023-02-17T13:39:49;101878.66;;;18.07;51.48
48942;BME280;35340;52.378;4.648;2023-02-17T13:42:40;101891.69;;;18.07;51.53
48942;BME280;35340;52.378;4.648;2023-02-17T13:47:39;101857.78;;;18.09;51.63
48942;BME280;35340;52.378;4.648;2023-02-17T13:52:53;101872.56;;;18.08;51.70
48942;BME280;35340;52.378;4.648;2023-02-17T13:55:20;101881.25;;;18.09;51.67
48942;BME280;35340;52.378;4.648;2023-02-17T13:57:54;101882.13;;;18.08;51.45
48942;BME280;35340;52.378;4.648;2023-02-17T14:00:28;101881.25;;;18.07;51.47
48942;BME280;35340;52.378;4.648;2023-02-17T14:03:04;101880.34;;;18.07;51.38
48942;BME280;35340;52.378;4.648;2023-02-17T14:05:39;101872.53;;;18.07;51.17
48942;BME280;35340;52.378;4.648;2023-02-17T14:08:12;101872.56;;;18.05;51.46
48942;BME280;35340;52.378;4.648;2023-02-17T14:10:39;101884.69;;;18.05;51.51
48942;BME280;35340;52.378;4.648;2023-02-17T14:13:08;101887.28;;;18.05;51.31
48942;BME280;35340;52.378;4.648;2023-02-17T14:15:37;101896.84;;;18.04;51.43
48942;BME280;35340;52.378;4.648;2023-02-17T14:18:14;101891.63;;;18.04;51.19
48942;BME280;35340;52.378;4.648;2023-02-17T14:21:08;101895.97;;;18.04;51.38
48942;BME280;35340;52.378;4.648;2023-02-17T14:23:48;101896.84;;;18.04;51.35
48942;BME280;35340;52.378;4.648;2023-02-17T14:26:45;101892.50;;;18.03;51.56
48942;BME280;35340;52.378;4.648;2023-02-17T14:29:12;101902.94;;;18.03;51.71
48942;BME280;35340;52.378;4.648;2023-02-17T14:34:28;101907.25;;;18.03;51.61